Time;durP1;ratioP1;P1;durP2;ratioP2;P2;SDS_P1;SDS_P2;PMS_P1;PMS_P2;Temp;Humidity;BMP_temperature;BMP_pressure;BME280_temperature;BME280_humidity;BME280_pressure;Samples;Min_cycle;Max_cycle;Signal;HPM_P1;HPM_P2
2024/04/05 00:00:16;;;;;;;;;;;14.90;99.90;;;;;;5093199;28;19962;-53
2024/04/05 00:02:43;;;;;;;;;;;14.90;99.90;;;;;;5094432;28;19915;-53
2024/04/05 00:05:15;;;;;;;;;;;14.90;99.90;;;;;;5093173;28;19965;-53
2024/04/05 00:07:41;;;;;;;;;;;14.90;99.90;;;;;;5086634;28;20399;-53
2024/04/05 00:10:07;;;;;;;;;;;14.90;99.90;;;;;;5093891;28;20022;-52
2024/04/05 00:12:33;;;;;;;;;;;14.90;99.90;;;;;;5083246;28;19940;-53
2024/04/05 00:14:59;;;;;;;;;;;14.90;99.90;;;;;;5074408;28;19916;-52
2024/04/05 00:17:25;;;;;;;;;;;14.80;99.90;;;;;;5075240;28;19912;-54
2024/04/05 00:19:52;;;;;;;;;;;14.80;99.90;;;;;;5075969;28;19967;-52
2024/04/05 00:22:18;;;;;;;;;;;14.80;99.90;;;;;;5081529;28;20497;-52
2024/04/05 00:24:43;;;;;;;;;;;14.80;99.90;;;;;;5081472;28;19930;-50
2024/04/05 00:27:09;;;;;;;;;;;14.80;99.90;;;;;;5081827;28;19958;-52
2024/04/05 00:29:36;;;;;;;;;;;14.80;99.90;;;;;;5084285;28;19913;-53
2024/04/05 00:32:02;;;;;;;;;;;14.80;99.90;;;;;;5082224;28;20390;-53
2024/04/05 00:34:27;;;;;;;;;;;14.80;99.90;;;;;;5084284;28;19999;-53
2024/04/05 00:36:53;;;;;;;;;;;14.80;99.90;;;;;;5082731;28;20368;-51
2024/04/05 00:39:18;;;;;;;;;;;14.80;99.90;;;;;;5084530;28;19979;-53
2024/04/05 00:41:44;;;;;;;;;;;14.80;99.90;;;;;;5083275;28;20379;-52
2024/04/05 00:44:09;;;;;;;;;;;14.80;99.90;;;;;;5084684;28;20600;-53
2024/04/05 00:46:35;;;;;;;;;;;14.90;99.90;;;;;;5084554;28;20379;-53
2024/04/05 00:49:01;;;;;;;;;;;14.90;99.90;;;;;;5084269;28;19913;-53
2024/04/05 00:51:27;;;;;;;;;;;14.90;99.90;;;;;;5085079;28;19909;-53
2024/04/05 00:53:53;;;;;;;;;;;15.00;99.90;;;;;;5071697;28;20012;-53
2024/04/05 00:56:20;;;;;;;;;;;15.00;99.90;;;;;;5081391;28;19908;-51
2024/04/05 00:58:45;;;;;;;;;;;15.00;99.90;;;;;;5084080;28;19909;-54
2024/04/05 01:01:11;;;;;;;;;;;15.00;99.90;;;;;;5083344;28;20066;-51
2024/04/05 01:03:38;;;;;;;;;;;15.00;99.90;;;;;;5083342;28;19909;-49
2024/04/05 01:06:04;;;;;;;;;;;15.00;99.90;;;;;;5082675;28;19965;-49
2024/04/05 01:08:29;;;;;;;;;;;15.00;99.90;;;;;;5084124;28;20002;-50
2024/04/05 01:10:55;;;;;;;;;;;15.00;99.90;;;;;;5071562;28;20509;-49
2024/04/05 01:13:20;;;;;;;;;;;15.10;99.90;;;;;;5081967;28;19912;-50
2024/04/05 01:15:46;;;;;;;;;;;15.10;99.90;;;;;;5087681;28;19919;-50
2024/04/05 01:18:11;;;;;;;;;;;15.10;99.90;;;;;;5085606;28;19928;-52
2024/04/05 01:20:40;;;;;;;;;;;15.10;99.90;;;;;;5089326;28;21043;-50
2024/04/05 01:23:06;;;;;;;;;;;15.10;99.90;;;;;;5088161;28;20162;-50
2024/04/05 01:25:32;;;;;;;;;;;15.10;99.90;;;;;;5092357;28;19912;-50
2024/04/05 01:27:59;;;;;;;;;;;15.10;99.90;;;;;;5084298;28;19913;-50
2024/04/05 01:30:25;;;;;;;;;;;15.10;99.90;;;;;;5074591;28;19912;-50
2024/04/05 01:32:55;;;;;;;;;;;15.10;99.90;;;;;;5087918;28;20268;-49
2024/04/05 01:35:21;;;;;;;;;;;15.10;99.90;;;;;;5093875;28;19908;-50
2024/04/05 01:37:46;;;;;;;;;;;15.10;99.90;;;;;;5090843;28;20406;-49
2024/04/05 01:40:12;;;;;;;;;;;15.10;99.90;;;;;;5094469;28;19908;-49
2024/04/05 01:42:37;;;;;;;;;;;15.10;99.90;;;;;;5091502;28;20423;-49
2024/04/05 01:45:03;;;;;;;;;;;15.20;99.90;;;;;;5094262;28;19920;-51
2024/04/05 01:47:29;;;;;;;;;;;15.20;99.90;;;;;;5092158;28;19951;-51
2024/04/05 01:49:54;;;;;;;;;;;15.20;99.90;;;;;;5094757;28;19913;-50
2024/04/05 01:52:20;;;;;;;;;;;15.20;99.90;;;;;;5093481;28;19916;-49
2024/04/05 01:54:45;;;;;;;;;;;15.20;99.90;;;;;;5095097;28;19999;-50
2024/04/05 01:57:11;;;;;;;;;;;15.10;99.90;;;;;;5094529;28;20338;-49
2024/04/05 01:59:36;;;;;;;;;;;15.10;99.90;;;;;;5096010;28;19947;-49
2024/04/05 02:02:02;;;;;;;;;;;15.10;99.90;;;;;;5080667;28;19909;-51
2024/04/05 02:04:27;;;;;;;;;;;15.10;99.90;;;;;;5093303;28;19908;-50
2024/04/05 02:06:53;;;;;;;;;;;15.20;99.90;;;;;;5089425;28;19913;-50
2024/04/05 02:09:18;;;;;;;;;;;15.20;99.90;;;;;;5085131;28;20336;-52
2024/04/05 02:11:44;;;;;;;;;;;15.10;99.90;;;;;;5080963;28;20379;-50
2024/04/05 02:14:09;;;;;;;;;;;15.20;99.90;;;;;;5086398;28;19908;-48
2024/04/05 02:16:35;;;;;;;;;;;15.20;99.90;;;;;;5078511;28;19908;-49
2024/04/05 02:19:00;;;;;;;;;;;15.20;99.90;;;;;;5081496;28;20325;-49
2024/04/05 02:21:26;;;;;;;;;;;15.20;99.90;;;;;;5078179;28;20437;-49
2024/04/05 02:23:52;;;;;;;;;;;15.20;99.90;;;;;;5089866;28;19926;-49
2024/04/05 02:26:18;;;;;;;;;;;15.20;99.90;;;;;;5088155;28;19909;-49
2024/04/05 02:28:44;;;;;;;;;;;15.20;99.90;;;;;;5079309;28;19913;-50
2024/04/05 02:31:10;;;;;;;;;;;15.20;99.90;;;;;;5078558;28;19917;-49
2024/04/05 02:33:36;;;;;;;;;;;15.20;99.90;;;;;;5083559;28;19916;-49
2024/04/05 02:36:01;;;;;;;;;;;15.20;99.90;;;;;;5082926;28;19913;-49
2024/04/05 02:38:27;;;;;;;;;;;15.20;99.90;;;;;;5075132;28;19919;-50
2024/04/05 02:40:53;;;;;;;;;;;15.20;99.90;;;;;;5082633;28;20357;-49
2024/04/05 02:43:19;;;;;;;;;;;15.20;99.90;;;;;;5079135;28;19991;-49
2024/04/05 02:45:45;;;;;;;;;;;15.20;99.90;;;;;;5080670;28;19963;-49
2024/04/05 02:48:10;;;;;;;;;;;15.20;99.90;;;;;;5087823;28;19912;-49
2024/04/05 02:50:36;;;;;;;;;;;15.20;99.90;;;;;;5081020;28;19912;-48
2024/04/05 02:53:01;;;;;;;;;;;15.20;99.90;;;;;;5077367;28;19909;-48
2024/04/05 02:55:27;;;;;;;;;;;15.20;99.90;;;;;;5083498;28;19913;-48
2024/04/05 02:57:52;;;;;;;;;;;15.20;99.90;;;;;;5080288;28;19916;-50
2024/04/05 03:00:18;;;;;;;;;;;15.20;99.90;;;;;;5079059;28;19908;-49
2024/04/05 03:02:43;;;;;;;;;;;15.20;99.90;;;;;;5076264;28;19908;-50
2024/04/05 03:05:09;;;;;;;;;;;15.20;99.90;;;;;;5077101;28;19908;-49
2024/04/05 03:07:35;;;;;;;;;;;15.20;99.90;;;;;;5076995;28;19955;-49
2024/04/05 03:10:01;;;;;;;;;;;15.30;99.90;;;;;;5077203;28;20301;-48
2024/04/05 03:12:26;;;;;;;;;;;15.20;99.90;;;;;;5077054;28;19909;-49
2024/04/05 03:14:52;;;;;;;;;;;15.20;99.90;;;;;;5077626;28;19915;-49
2024/04/05 03:17:18;;;;;;;;;;;15.30;99.90;;;;;;5076635;28;19963;-49
2024/04/05 03:19:43;;;;;;;;;;;15.20;99.90;;;;;;5078886;28;19924;-49
2024/04/05 03:22:09;;;;;;;;;;;15.20;99.90;;;;;;5078924;28;19957;-49
2024/04/05 03:24:35;;;;;;;;;;;15.20;99.90;;;;;;5082585;28;20276;-51
2024/04/05 03:27:00;;;;;;;;;;;15.20;99.90;;;;;;5078783;28;19979;-50
2024/04/05 03:29:26;;;;;;;;;;;15.20;99.90;;;;;;5083248;28;19912;-53
2024/04/05 03:31:51;;;;;;;;;;;15.20;99.90;;;;;;5072158;28;19948;-52
2024/04/05 03:34:18;;;;;;;;;;;15.20;99.90;;;;;;5083761;28;19972;-53
2024/04/05 03:36:43;;;;;;;;;;;15.20;99.90;;;;;;5080245;28;19908;-49
2024/04/05 03:39:10;;;;;;;;;;;15.20;99.90;;;;;;5083761;28;19942;-52
2024/04/05 03:41:36;;;;;;;;;;;15.20;99.90;;;;;;5081497;28;19916;-50
2024/04/05 03:44:02;;;;;;;;;;;15.20;99.90;;;;;;5083859;28;19908;-50
2024/04/05 03:46:28;;;;;;;;;;;15.20;99.90;;;;;;5082104;28;20284;-52
2024/04/05 03:48:54;;;;;;;;;;;15.20;99.90;;;;;;5084028;28;19923;-53
2024/04/05 03:51:19;;;;;;;;;;;15.20;99.90;;;;;;5083190;28;19913;-53
2024/04/05 03:53:45;;;;;;;;;;;15.20;99.90;;;;;;5084715;28;19913;-53
2024/04/05 03:56:10;;;;;;;;;;;15.20;99.90;;;;;;5087733;28;19923;-53
2024/04/05 03:58:36;;;;;;;;;;;15.20;99.90;;;;;;5089110;28;19915;-50
2024/04/05 04:01:02;;;;;;;;;;;15.10;99.90;;;;;;5088620;28;19916;-50
2024/04/05 04:03:27;;;;;;;;;;;15.20;99.90;;;;;;5089405;28;19939;-52
2024/04/05 04:05:53;;;;;;;;;;;15.10;99.90;;;;;;5086153;28;19981;-52
2024/04/05 04:08:20;;;;;;;;;;;15.10;99.90;;;;;;5089545;28;19977;-53
2024/04/05 04:10:47;;;;;;;;;;;15.10;99.90;;;;;;5089629;28;20344;-48
2024/04/05 04:13:13;;;;;;;;;;;15.10;99.90;;;;;;5089518;28;19916;-49
2024/04/05 04:15:39;;;;;;;;;;;15.10;99.90;;;;;;5085238;28;20480;-49
2024/04/05 04:18:05;;;;;;;;;;;15.10;99.90;;;;;;5079901;28;20400;-48
2024/04/05 04:20:30;;;;;;;;;;;15.10;99.90;;;;;;5082630;28;19927;-49
2024/04/05 04:22:56;;;;;;;;;;;15.10;99.90;;;;;;5072108;28;20342;-49
2024/04/05 04:25:21;;;;;;;;;;;15.10;99.90;;;;;;5079071;28;19908;-48
2024/04/05 04:27:48;;;;;;;;;;;15.10;99.90;;;;;;5069874;28;19908;-50
2024/04/05 04:30:14;;;;;;;;;;;15.10;99.90;;;;;;5070335;28;19913;-49
2024/04/05 04:32:40;;;;;;;;;;;15.10;99.90;;;;;;5075448;28;20377;-48
2024/04/05 04:35:06;;;;;;;;;;;15.10;99.90;;;;;;5097019;28;19941;-48
2024/04/05 04:37:31;;;;;;;;;;;15.10;99.90;;;;;;5072860;28;19932;-49
2024/04/05 04:39:57;;;;;;;;;;;15.10;99.90;;;;;;5071345;28;19917;-50
2024/04/05 04:42:22;;;;;;;;;;;15.10;99.90;;;;;;5074644;28;20364;-51
2024/04/05 04:44:48;;;;;;;;;;;15.10;99.90;;;;;;5074626;28;19913;-53
2024/04/05 04:47:13;;;;;;;;;;;15.10;99.90;;;;;;5109748;28;20481;-49
2024/04/05 04:49:39;;;;;;;;;;;15.20;99.90;;;;;;5109300;28;20291;-50
2024/04/05 04:52:05;;;;;;;;;;;15.10;99.90;;;;;;5098354;28;19971;-49
2024/04/05 04:54:30;;;;;;;;;;;15.10;99.90;;;;;;5096796;28;19959;-50
2024/04/05 04:56:56;;;;;;;;;;;15.10;99.90;;;;;;5094788;28;19916;-49
2024/04/05 04:59:28;;;;;;;;;;;15.10;99.90;;;;;;5095785;28;19912;-49
2024/04/05 05:01:56;;;;;;;;;;;15.20;99.90;;;;;;5088209;28;19934;-52
2024/04/05 05:04:22;;;;;;;;;;;15.20;99.90;;;;;;5097288;28;19916;-49
2024/04/05 05:06:49;;;;;;;;;;;15.20;99.90;;;;;;5096382;28;20431;-49
2024/04/05 05:09:15;;;;;;;;;;;15.20;99.90;;;;;;5100754;28;19962;-50
2024/04/05 05:11:41;;;;;;;;;;;15.20;99.90;;;;;;5097372;28;20027;-49
2024/04/05 05:14:07;;;;;;;;;;;15.20;99.90;;;;;;5105483;28;20407;-48
2024/04/05 05:16:32;;;;;;;;;;;15.20;99.90;;;;;;5090800;28;19952;-49
2024/04/05 05:18:58;;;;;;;;;;;15.20;99.90;;;;;;5094108;28;20011;-49
2024/04/05 05:21:23;;;;;;;;;;;15.20;99.90;;;;;;5105799;28;20019;-50
2024/04/05 05:23:49;;;;;;;;;;;15.20;99.90;;;;;;5093914;28;19912;-51
2024/04/05 05:26:15;;;;;;;;;;;15.20;99.90;;;;;;5109652;28;19920;-49
2024/04/05 05:28:41;;;;;;;;;;;15.20;99.90;;;;;;5097111;28;20019;-50
2024/04/05 05:31:06;;;;;;;;;;;15.20;99.90;;;;;;5091811;28;19976;-48
2024/04/05 05:33:32;;;;;;;;;;;15.20;99.90;;;;;;5102190;28;19920;-49
2024/04/05 05:35:57;;;;;;;;;;;15.30;99.90;;;;;;5095767;28;19923;-50
2024/04/05 05:38:23;;;;;;;;;;;15.20;99.90;;;;;;5088881;28;19908;-49
2024/04/05 05:40:48;;;;;;;;;;;15.30;99.90;;;;;;5090364;28;19999;-51
2024/04/05 05:43:14;;;;;;;;;;;15.20;99.90;;;;;;5094879;28;20290;-49
2024/04/05 05:45:39;;;;;;;;;;;15.20;99.90;;;;;;5098498;28;20410;-50
2024/04/05 05:48:06;;;;;;;;;;;15.30;99.90;;;;;;5104406;28;19915;-52
2024/04/05 05:50:32;;;;;;;;;;;15.30;99.90;;;;;;5097402;28;19946;-52
2024/04/05 05:52:57;;;;;;;;;;;15.30;99.90;;;;;;5099920;28;19912;-53
2024/04/05 05:55:24;;;;;;;;;;;15.20;99.90;;;;;;5099658;28;19916;-53
2024/04/05 05:57:50;;;;;;;;;;;15.30;99.90;;;;;;5094752;28;19954;-53
2024/04/05 06:00:17;;;;;;;;;;;15.20;99.90;;;;;;5094687;28;20371;-53
2024/04/05 06:02:43;;;;;;;;;;;15.20;99.90;;;;;;5095844;28;20655;-52
2024/04/05 06:05:10;;;;;;;;;;;15.20;99.90;;;;;;5075144;28;20268;-53
2024/04/05 06:07:35;;;;;;;;;;;15.20;99.90;;;;;;5100628;28;19969;-53
2024/04/05 06:10:01;;;;;;;;;;;15.20;99.90;;;;;;5095062;28;19916;-53
2024/04/05 06:12:27;;;;;;;;;;;15.20;99.90;;;;;;5095507;28;20027;-53
2024/04/05 06:14:57;;;;;;;;;;;15.20;99.90;;;;;;5095496;28;19915;-53
2024/04/05 06:17:24;;;;;;;;;;;15.30;99.90;;;;;;5095546;28;19908;-53
2024/04/05 06:19:53;;;;;;;;;;;15.30;99.90;;;;;;5094821;28;20371;-52
2024/04/05 06:22:19;;;;;;;;;;;15.20;99.90;;;;;;5092995;28;19995;-53
2024/04/05 06:24:48;;;;;;;;;;;15.30;99.90;;;;;;5094828;28;19967;-52
2024/04/05 06:27:13;;;;;;;;;;;15.30;99.90;;;;;;5095467;28;19908;-54
2024/04/05 06:29:39;;;;;;;;;;;15.30;99.90;;;;;;5094516;28;19922;-52
2024/04/05 06:32:04;;;;;;;;;;;15.30;99.90;;;;;;5093607;28;19920;-53
2024/04/05 06:34:30;;;;;;;;;;;15.30;99.90;;;;;;5095144;28;20007;-53
2024/04/05 06:36:55;;;;;;;;;;;15.30;99.90;;;;;;5094635;28;20468;-53
2024/04/05 06:39:21;;;;;;;;;;;15.30;99.90;;;;;;5090136;28;19912;-52
2024/04/05 06:41:46;;;;;;;;;;;15.30;99.90;;;;;;5086127;28;19973;-50
2024/04/05 06:44:14;;;;;;;;;;;15.30;99.90;;;;;;5094621;28;19909;-52
2024/04/05 06:46:40;;;;;;;;;;;15.30;99.90;;;;;;5091637;28;19924;-53
2024/04/05 06:49:05;;;;;;;;;;;15.30;99.90;;;;;;5084920;28;20340;-54
2024/04/05 06:51:31;;;;;;;;;;;15.20;99.90;;;;;;5094069;28;20279;-49
2024/04/05 06:53:56;;;;;;;;;;;15.30;99.90;;;;;;5092382;28;20375;-53
2024/04/05 06:56:22;;;;;;;;;;;15.30;99.90;;;;;;5091100;28;19919;-53
2024/04/05 06:58:48;;;;;;;;;;;15.20;99.90;;;;;;5089797;28;20336;-50
2024/04/05 07:01:15;;;;;;;;;;;15.20;99.90;;;;;;5086830;28;19910;-48
2024/04/05 07:03:41;;;;;;;;;;;15.20;99.90;;;;;;5087770;28;19953;-49
2024/04/05 07:06:07;;;;;;;;;;;15.30;99.90;;;;;;5079166;28;19912;-49
2024/04/05 07:08:32;;;;;;;;;;;15.30;99.90;;;;;;5094759;28;19912;-49
2024/04/05 07:10:58;;;;;;;;;;;15.20;99.90;;;;;;5094246;28;20367;-48
2024/04/05 07:13:24;;;;;;;;;;;15.20;99.90;;;;;;5092116;28;19927;-49
2024/04/05 07:15:50;;;;;;;;;;;15.20;99.90;;;;;;5094078;28;19943;-49
2024/04/05 07:18:18;;;;;;;;;;;15.20;99.90;;;;;;5093403;28;19947;-48
2024/04/05 07:20:44;;;;;;;;;;;15.20;99.90;;;;;;5083940;28;19998;-50
2024/04/05 07:23:09;;;;;;;;;;;15.20;99.90;;;;;;5091923;28;19912;-50
2024/04/05 07:25:35;;;;;;;;;;;15.20;99.90;;;;;;5094522;28;19993;-48
2024/04/05 07:28:01;;;;;;;;;;;15.30;99.90;;;;;;5094354;28;19912;-49
2024/04/05 07:30:27;;;;;;;;;;;15.20;99.90;;;;;;5093703;28;20042;-48
2024/04/05 07:32:54;;;;;;;;;;;15.20;99.90;;;;;;5094044;28;19908;-48
2024/04/05 07:35:20;;;;;;;;;;;15.20;99.90;;;;;;5094530;28;19912;-48
2024/04/05 07:37:46;;;;;;;;;;;15.30;99.90;;;;;;5095725;28;19909;-48
2024/04/05 07:40:17;;;;;;;;;;;15.20;99.90;;;;;;5094233;28;19929;-49
2024/04/05 07:42:46;;;;;;;;;;;15.30;99.90;;;;;;5094551;28;19954;-48
2024/04/05 07:45:12;;;;;;;;;;;15.30;99.90;;;;;;5094260;28;20003;-48
2024/04/05 07:47:38;;;;;;;;;;;15.20;99.90;;;;;;5094488;28;20005;-49
2024/04/05 07:50:04;;;;;;;;;;;15.20;99.90;;;;;;5093956;28;19916;-50
2024/04/05 07:52:29;;;;;;;;;;;15.20;99.90;;;;;;5094294;28;20341;-49
2024/04/05 07:54:55;;;;;;;;;;;15.20;99.90;;;;;;5093746;28;19930;-49
2024/04/05 07:57:21;;;;;;;;;;;15.20;99.90;;;;;;5094184;28;20294;-49
2024/04/05 07:59:49;;;;;;;;;;;15.20;99.90;;;;;;5093860;28;19959;-49
2024/04/05 08:02:15;;;;;;;;;;;15.30;99.90;;;;;;5083386;28;19916;-49
2024/04/05 08:04:40;;;;;;;;;;;15.20;99.90;;;;;;5091727;28;19920;-49
2024/04/05 08:07:06;;;;;;;;;;;15.30;99.90;;;;;;5089830;28;20429;-51
2024/04/05 08:09:31;;;;;;;;;;;15.20;99.90;;;;;;5092309;28;20317;-49
2024/04/05 08:11:57;;;;;;;;;;;15.30;99.90;;;;;;5092958;28;19962;-49
2024/04/05 08:14:23;;;;;;;;;;;15.20;99.90;;;;;;5093440;28;19908;-50
2024/04/05 08:16:48;;;;;;;;;;;15.20;99.90;;;;;;5092275;28;20363;-52
2024/04/05 08:19:14;;;;;;;;;;;15.20;99.90;;;;;;5092891;28;20338;-50
2024/04/05 08:21:40;;;;;;;;;;;15.30;99.90;;;;;;5093509;28;19927;-49
2024/04/05 08:24:06;;;;;;;;;;;15.30;99.90;;;;;;5092951;28;20472;-49
2024/04/05 08:26:31;;;;;;;;;;;15.20;99.90;;;;;;5093319;28;19947;-53
2024/04/05 08:28:57;;;;;;;;;;;15.20;99.90;;;;;;5090826;28;19927;-52
2024/04/05 08:31:22;;;;;;;;;;;15.20;99.90;;;;;;5090531;28;19912;-51
2024/04/05 08:33:48;;;;;;;;;;;15.20;99.90;;;;;;5093060;28;20329;-50
2024/04/05 08:36:14;;;;;;;;;;;15.30;99.90;;;;;;5089634;28;19969;-49
2024/04/05 08:38:40;;;;;;;;;;;15.20;99.90;;;;;;5086939;28;19912;-52
2024/04/05 08:41:06;;;;;;;;;;;15.30;99.90;;;;;;5090607;28;20268;-49
2024/04/05 08:43:33;;;;;;;;;;;15.20;99.90;;;;;;5094896;28;19919;-53
2024/04/05 08:45:59;;;;;;;;;;;15.20;99.90;;;;;;5095201;28;19919;-50
2024/04/05 08:48:26;;;;;;;;;;;15.30;99.90;;;;;;5096657;28;19908;-50
2024/04/05 08:50:51;;;;;;;;;;;15.20;99.90;;;;;;5096048;28;20299;-49
2024/04/05 08:53:17;;;;;;;;;;;15.20;99.90;;;;;;5096311;28;19912;-48
2024/04/05 08:55:43;;;;;;;;;;;15.30;99.90;;;;;;5096430;28;19908;-49
2024/04/05 08:58:09;;;;;;;;;;;15.30;99.90;;;;;;5069656;28;19942;-50
2024/04/05 09:00:38;;;;;;;;;;;15.20;99.90;;;;;;5096624;28;19920;-53
2024/04/05 09:03:04;;;;;;;;;;;15.30;99.90;;;;;;5096262;28;19942;-54
2024/04/05 09:05:30;;;;;;;;;;;15.20;99.90;;;;;;5097021;28;20343;-52
2024/04/05 09:08:05;;;;;;;;;;;15.30;99.90;;;;;;5096738;28;20279;-52
2024/04/05 09:10:31;;;;;;;;;;;15.20;99.90;;;;;;5096691;28;19977;-52
2024/04/05 09:12:57;;;;;;;;;;;15.30;99.90;;;;;;5083393;28;19909;-49
2024/04/05 09:15:24;;;;;;;;;;;15.30;99.90;;;;;;5095988;28;19916;-48
2024/04/05 09:17:49;;;;;;;;;;;15.30;99.90;;;;;;5096408;28;19916;-48
2024/04/05 09:20:31;;;;;;;;;;;15.30;99.90;;;;;;5096794;28;20131;-48
2024/04/05 09:23:04;;;;;;;;;;;15.30;99.90;;;;;;5096045;28;19908;-49
2024/04/05 09:25:30;;;;;;;;;;;15.30;99.90;;;;;;5095861;28;20004;-48
2024/04/05 09:28:10;;;;;;;;;;;15.30;99.90;;;;;;5096968;28;19943;-48
2024/04/05 09:30:36;;;;;;;;;;;15.40;99.90;;;;;;5093753;28;20073;-50
2024/04/05 09:33:01;;;;;;;;;;;15.40;99.90;;;;;;5094552;28;19954;-48
2024/04/05 09:35:28;;;;;;;;;;;15.40;99.90;;;;;;5095991;28;19919;-49
2024/04/05 09:37:56;;;;;;;;;;;15.40;99.90;;;;;;5094095;28;19914;-49
2024/04/05 09:40:25;;;;;;;;;;;15.40;99.90;;;;;;5081621;28;20049;-48
2024/04/05 09:42:53;;;;;;;;;;;15.40;99.90;;;;;;5095777;28;19956;-49
2024/04/05 09:45:25;;;;;;;;;;;15.40;99.90;;;;;;5095452;28;20307;-49
2024/04/05 09:47:52;;;;;;;;;;;15.40;99.90;;;;;;5095304;28;19920;-50
2024/04/05 09:50:20;;;;;;;;;;;15.50;99.90;;;;;;5095090;28;19957;-48
2024/04/05 09:52:46;;;;;;;;;;;15.50;99.90;;;;;;5094817;28;20355;-49
2024/04/05 09:55:13;;;;;;;;;;;15.50;99.90;;;;;;5095589;28;19908;-49
2024/04/05 09:57:38;;;;;;;;;;;15.50;99.90;;;;;;5095465;28;19924;-50
2024/04/05 10:00:14;;;;;;;;;;;15.50;99.90;;;;;;5094086;28;19908;-50
2024/04/05 10:02:50;;;;;;;;;;;15.50;99.90;;;;;;5083767;28;19911;-49
2024/04/05 10:05:24;;;;;;;;;;;15.50;99.90;;;;;;5090431;28;20289;-48
2024/04/05 10:07:50;;;;;;;;;;;15.50;99.90;;;;;;5092025;28;20173;-49
2024/04/05 10:10:15;;;;;;;;;;;15.50;99.90;;;;;;5094445;28;20209;-49
2024/04/05 10:12:42;;;;;;;;;;;15.50;99.90;;;;;;5095475;28;19943;-49
2024/04/05 10:15:09;;;;;;;;;;;15.50;99.90;;;;;;5094582;28;19918;-52
2024/04/05 10:17:34;;;;;;;;;;;15.50;99.90;;;;;;5081448;28;20322;-50
2024/04/05 10:20:05;;;;;;;;;;;15.60;99.90;;;;;;5092299;28;19915;-53
2024/04/05 10:22:32;;;;;;;;;;;15.60;99.90;;;;;;5090473;28;19908;-49
2024/04/05 10:24:57;;;;;;;;;;;15.60;99.90;;;;;;5092804;28;19908;-51
2024/04/05 10:27:23;;;;;;;;;;;15.60;99.90;;;;;;5089082;28;20007;-48
2024/04/05 10:29:59;;;;;;;;;;;15.60;99.90;;;;;;5093584;28;19917;-48
2024/04/05 10:32:24;;;;;;;;;;;15.60;99.90;;;;;;5094146;28;19916;-50
2024/04/05 10:34:50;;;;;;;;;;;15.60;99.90;;;;;;5087488;28;19916;-48
2024/04/05 10:37:16;;;;;;;;;;;15.60;99.90;;;;;;5087306;28;19908;-49
2024/04/05 10:39:42;;;;;;;;;;;15.60;99.90;;;;;;5094086;28;19994;-49
2024/04/05 10:42:08;;;;;;;;;;;15.60;99.90;;;;;;5094551;28;19912;-49
2024/04/05 10:44:33;;;;;;;;;;;15.60;99.90;;;;;;5087691;28;19915;-49
2024/04/05 10:46:59;;;;;;;;;;;15.60;99.90;;;;;;5087669;28;19923;-49
2024/04/05 10:49:26;;;;;;;;;;;15.60;99.90;;;;;;5092779;28;19924;-49
2024/04/05 10:51:57;;;;;;;;;;;15.60;99.90;;;;;;5094535;28;19923;-49
2024/04/05 10:54:23;;;;;;;;;;;15.60;99.90;;;;;;5094404;28;19970;-49
2024/04/05 10:56:48;;;;;;;;;;;15.60;99.90;;;;;;5094292;28;19916;-49
2024/04/05 10:59:17;;;;;;;;;;;15.60;99.90;;;;;;5094575;28;19915;-50
2024/04/05 11:01:42;;;;;;;;;;;15.60;99.90;;;;;;5094538;28;20343;-49
2024/04/05 11:04:10;;;;;;;;;;;15.70;99.90;;;;;;5093668;28;19963;-49
2024/04/05 11:06:36;;;;;;;;;;;15.60;99.90;;;;;;5092497;28;19920;-48
2024/04/05 11:09:02;;;;;;;;;;;15.60;99.90;;;;;;5074166;28;19917;-49
2024/04/05 11:11:28;;;;;;;;;;;15.70;99.90;;;;;;5094667;28;20513;-49
2024/04/05 11:14:03;;;;;;;;;;;15.60;99.90;;;;;;5093399;28;19930;-49
2024/04/05 11:16:29;;;;;;;;;;;15.60;99.90;;;;;;5093683;28;19916;-48
2024/04/05 11:18:55;;;;;;;;;;;15.70;99.90;;;;;;5093320;28;19959;-48
2024/04/05 11:21:20;;;;;;;;;;;15.60;99.90;;;;;;5092731;28;19997;-50
2024/04/05 11:23:51;;;;;;;;;;;15.70;99.90;;;;;;5091261;28;20360;-49
2024/04/05 11:26:20;;;;;;;;;;;15.60;99.90;;;;;;5092785;28;19952;-51
2024/04/05 11:28:47;;;;;;;;;;;15.60;99.90;;;;;;5092417;28;19967;-51
2024/04/05 11:31:14;;;;;;;;;;;15.60;99.90;;;;;;5092948;28;19914;-49
2024/04/05 11:33:39;;;;;;;;;;;15.70;99.90;;;;;;5093298;28;19959;-49
2024/04/05 11:36:05;;;;;;;;;;;15.70;99.90;;;;;;5092940;28;19908;-52
2024/04/05 11:38:31;;;;;;;;;;;15.70;99.90;;;;;;5093213;28;19938;-50
2024/04/05 11:40:57;;;;;;;;;;;15.70;99.90;;;;;;5089716;28;19908;-51
2024/04/05 11:43:23;;;;;;;;;;;15.70;99.90;;;;;;5086266;28;19927;-50
2024/04/05 11:45:48;;;;;;;;;;;15.70;99.90;;;;;;5084363;28;20398;-54
2024/04/05 11:48:14;;;;;;;;;;;15.70;99.90;;;;;;5091032;28;19932;-53
2024/04/05 11:50:40;;;;;;;;;;;15.70;99.90;;;;;;5094167;28;20006;-52
2024/04/05 11:53:06;;;;;;;;;;;15.70;99.90;;;;;;5093584;28;19995;-52
2024/04/05 11:55:31;;;;;;;;;;;15.70;99.90;;;;;;5093525;28;19916;-54
2024/04/05 11:57:57;;;;;;;;;;;15.70;99.90;;;;;;5093233;28;19908;-54
2024/04/05 12:00:22;;;;;;;;;;;15.70;99.90;;;;;;5093503;28;19934;-52
2024/04/05 12:02:48;;;;;;;;;;;15.70;99.90;;;;;;5092880;28;20290;-52
2024/04/05 12:05:13;;;;;;;;;;;15.70;99.90;;;;;;5093818;28;19916;-53
2024/04/05 12:07:39;;;;;;;;;;;15.80;99.90;;;;;;5093061;28;19908;-53
2024/04/05 12:10:05;;;;;;;;;;;15.80;99.90;;;;;;5090984;28;19916;-53
2024/04/05 12:12:31;;;;;;;;;;;15.80;99.90;;;;;;5092628;28;19912;-55
2024/04/05 12:14:57;;;;;;;;;;;15.80;99.90;;;;;;5093874;28;19973;-50
2024/04/05 12:17:22;;;;;;;;;;;15.80;99.90;;;;;;5098023;28;19912;-49
2024/04/05 12:19:48;;;;;;;;;;;15.80;99.90;;;;;;5097820;28;19908;-50
2024/04/05 12:22:13;;;;;;;;;;;15.80;99.90;;;;;;5098505;28;19908;-54
2024/04/05 12:24:39;;;;;;;;;;;15.80;99.90;;;;;;5097266;28;19912;-53
2024/04/05 12:27:04;;;;;;;;;;;15.80;99.90;;;;;;5096906;28;19938;-53
2024/04/05 12:29:30;;;;;;;;;;;15.80;99.90;;;;;;5094954;28;19927;-52
2024/04/05 12:31:55;;;;;;;;;;;15.80;99.90;;;;;;5096770;28;19908;-52
2024/04/05 12:34:21;;;;;;;;;;;15.80;99.90;;;;;;5096534;28;19935;-51
2024/04/05 12:36:46;;;;;;;;;;;15.80;99.90;;;;;;5088892;28;19998;-50
2024/04/05 12:39:30;;;;;;;;;;;15.80;99.90;;;;;;5093178;28;19943;-52
2024/04/05 12:41:56;;;;;;;;;;;15.80;99.90;;;;;;5094937;28;19919;-54
2024/04/05 12:44:22;;;;;;;;;;;15.80;99.90;;;;;;5096289;28;19908;-53
2024/04/05 12:46:50;;;;;;;;;;;15.80;99.90;;;;;;5095847;28;19919;-54
2024/04/05 12:49:16;;;;;;;;;;;15.80;99.90;;;;;;5096465;28;19912;-53
2024/04/05 12:51:42;;;;;;;;;;;15.80;99.90;;;;;;5097145;28;20307;-53
2024/04/05 12:54:07;;;;;;;;;;;15.80;99.90;;;;;;5096050;28;20404;-51
2024/04/05 12:56:33;;;;;;;;;;;15.80;99.90;;;;;;5088449;28;20327;-53
2024/04/05 12:58:58;;;;;;;;;;;15.80;99.90;;;;;;5093933;28;19908;-49
2024/04/05 13:01:25;;;;;;;;;;;15.80;99.90;;;;;;5088610;28;19931;-51
2024/04/05 13:03:51;;;;;;;;;;;15.80;99.90;;;;;;5086579;28;20963;-51
2024/04/05 13:06:19;;;;;;;;;;;15.80;99.90;;;;;;5094042;28;19908;-49
2024/04/05 13:08:45;;;;;;;;;;;15.80;99.90;;;;;;5096194;28;19919;-52
2024/04/05 13:11:11;;;;;;;;;;;15.80;99.90;;;;;;5096423;28;19916;-49
2024/04/05 13:13:38;;;;;;;;;;;15.80;99.90;;;;;;5096830;28;20010;-50
2024/04/05 13:16:06;;;;;;;;;;;15.80;99.90;;;;;;5096131;28;19947;-49
2024/04/05 13:18:35;;;;;;;;;;;15.80;99.90;;;;;;5095579;28;19928;-50
2024/04/05 13:21:08;;;;;;;;;;;15.80;99.90;;;;;;5095646;28;19931;-49
2024/04/05 13:23:38;;;;;;;;;;;15.80;99.90;;;;;;5096387;28;19908;-53
2024/04/05 13:26:30;;;;;;;;;;;15.80;99.90;;;;;;5095753;28;20381;-49
2024/04/05 13:28:55;;;;;;;;;;;15.80;99.90;;;;;;5092333;28;19916;-49
2024/04/05 13:31:22;;;;;;;;;;;15.80;99.90;;;;;;5095332;28;19912;-49
2024/04/05 13:33:50;;;;;;;;;;;15.80;99.90;;;;;;5095916;28;19909;-49
2024/04/05 13:36:16;;;;;;;;;;;15.80;99.90;;;;;;5096158;28;19908;-48
2024/04/05 13:38:42;;;;;;;;;;;15.80;99.90;;;;;;5095354;28;20320;-52
2024/04/05 13:41:08;;;;;;;;;;;15.80;99.90;;;;;;5095503;28;19915;-49
2024/04/05 13:43:34;;;;;;;;;;;15.80;99.90;;;;;;5096508;28;19942;-49
2024/04/05 13:46:08;;;;;;;;;;;15.80;99.90;;;;;;5093712;28;20508;-49
2024/04/05 13:48:38;;;;;;;;;;;15.80;99.90;;;;;;5095935;28;19930;-50
2024/04/05 13:51:04;;;;;;;;;;;15.80;99.90;;;;;;5092656;28;20161;-57
2024/04/05 13:53:32;;;;;;;;;;;15.80;99.90;;;;;;5070866;28;20560;-49
2024/04/05 13:55:57;;;;;;;;;;;15.80;99.90;;;;;;5085868;28;19934;-49
2024/04/05 13:58:23;;;;;;;;;;;15.80;99.90;;;;;;5086142;28;19912;-51
2024/04/05 14:00:49;;;;;;;;;;;15.80;99.90;;;;;;5093994;28;19951;-49
2024/04/05 14:03:14;;;;;;;;;;;15.80;99.90;;;;;;5095071;28;19912;-50
2024/04/05 14:05:40;;;;;;;;;;;15.80;99.90;;;;;;5094358;28;19915;-50
2024/04/05 14:08:06;;;;;;;;;;;15.90;99.90;;;;;;5094362;28;19919;-49
2024/04/05 14:10:35;;;;;;;;;;;15.80;99.90;;;;;;5091798;28;19916;-51